sensor_id;sensor_type;location;lat;lon;timestamp;P1;durP1;ratioP1;P2;durP2;ratioP2
142;SDS011;63667;49.046;8.468;2023-05-15T00:00:27;14.47;;;8.97;;
142;SDS011;63667;49.046;8.468;2023-05-15T00:02:54;12.70;;;8.27;;
142;SDS011;63667;49.046;8.468;2023-05-15T00:05:21;14.60;;;9.53;;
142;SDS011;63667;49.046;8.468;2023-05-15T00:07:47;13.97;;;9.07;;
142;SDS011;63667;49.046;8.468;2023-05-15T00:10:14;15.93;;;9.00;;
142;SDS011;63667;49.046;8.468;2023-05-15T00:12:40;16.80;;;9.57;;
142;SDS011;63667;49.046;8.468;2023-05-15T00:15:07;14.77;;;10.07;;
142;SDS011;63667;49.046;8.468;2023-05-15T00:17:33;15.47;;;9.30;;
142;SDS011;63667;49.046;8.468;2023-05-15T00:20:00;18.70;;;9.43;;
142;SDS011;63667;49.046;8.468;2023-05-15T00:22:26;15.13;;;9.57;;
142;SDS011;63667;49.046;8.468;2023-05-15T00:24:53;17.20;;;10.20;;
142;SDS011;63667;49.046;8.468;2023-05-15T00:27:19;17.90;;;9.80;;
142;SDS011;63667;49.046;8.468;2023-05-15T00:29:46;13.50;;;9.33;;
142;SDS011;63667;49.046;8.468;2023-05-15T00:32:12;16.17;;;9.90;;
142;SDS011;63667;49.046;8.468;2023-05-15T00:34:38;17.33;;;9.20;;
142;SDS011;63667;49.046;8.468;2023-05-15T00:37:05;18.50;;;9.13;;
142;SDS011;63667;49.046;8.468;2023-05-15T00:39:33;15.70;;;9.40;;
142;SDS011;63667;49.046;8.468;2023-05-15T00:41:59;16.40;;;9.37;;
142;SDS011;63667;49.046;8.468;2023-05-15T00:44:26;15.53;;;9.93;;
142;SDS011;63667;49.046;8.468;2023-05-15T00:46:53;16.80;;;9.90;;
142;SDS011;63667;49.046;8.468;2023-05-15T00:49:20;15.57;;;9.07;;
142;SDS011;63667;49.046;8.468;2023-05-15T00:51:47;18.23;;;9.90;;
142;SDS011;63667;49.046;8.468;2023-05-15T00:54:14;14.27;;;8.80;;
142;SDS011;63667;49.046;8.468;2023-05-15T00:56:41;15.50;;;9.50;;
142;SDS011;63667;49.046;8.468;2023-05-15T00:59:08;14.70;;;9.10;;
142;SDS011;63667;49.046;8.468;2023-05-15T01:04:19;15.37;;;9.43;;
142;SDS011;63667;49.046;8.468;2023-05-15T01:06:45;19.03;;;9.40;;
142;SDS011;63667;49.046;8.468;2023-05-15T01:09:13;16.77;;;9.83;;
142;SDS011;63667;49.046;8.468;2023-05-15T01:11:40;20.33;;;9.90;;
142;SDS011;63667;49.046;8.468;2023-05-15T01:14:07;18.70;;;10.13;;
142;SDS011;63667;49.046;8.468;2023-05-15T01:16:34;13.83;;;9.40;;
142;SDS011;63667;49.046;8.468;2023-05-15T01:19:01;15.63;;;9.40;;
142;SDS011;63667;49.046;8.468;2023-05-15T01:29:12;18.37;;;10.40;;
142;SDS011;63667;49.046;8.468;2023-05-15T01:31:40;18.33;;;10.03;;
142;SDS011;63667;49.046;8.468;2023-05-15T01:34:07;15.30;;;10.10;;
142;SDS011;63667;49.046;8.468;2023-05-15T01:36:45;17.33;;;9.90;;
142;SDS011;63667;49.046;8.468;2023-05-15T01:39:14;25.97;;;10.10;;
142;SDS011;63667;49.046;8.468;2023-05-15T01:42:02;25.93;;;10.57;;
142;SDS011;63667;49.046;8.468;2023-05-15T01:44:31;16.50;;;10.83;;
142;SDS011;63667;49.046;8.468;2023-05-15T01:47:00;21.67;;;11.97;;
142;SDS011;63667;49.046;8.468;2023-05-15T01:49:29;18.90;;;11.00;;
142;SDS011;63667;49.046;8.468;2023-05-15T01:52:16;19.00;;;10.60;;
142;SDS011;63667;49.046;8.468;2023-05-15T01:54:44;20.10;;;10.53;;
142;SDS011;63667;49.046;8.468;2023-05-15T01:57:11;17.07;;;10.47;;
142;SDS011;63667;49.046;8.468;2023-05-15T01:59:39;17.50;;;9.77;;
142;SDS011;63667;49.046;8.468;2023-05-15T02:02:06;15.90;;;10.30;;
142;SDS011;63667;49.046;8.468;2023-05-15T02:04:34;18.17;;;11.00;;
142;SDS011;63667;49.046;8.468;2023-05-15T02:07:02;19.23;;;11.00;;
142;SDS011;63667;49.046;8.468;2023-05-15T02:09:29;20.60;;;12.00;;
142;SDS011;63667;49.046;8.468;2023-05-15T02:11:56;19.23;;;11.50;;
142;SDS011;63667;49.046;8.468;2023-05-15T02:14:25;18.03;;;11.00;;
142;SDS011;63667;49.046;8.468;2023-05-15T02:16:53;40.83;;;12.50;;
142;SDS011;63667;49.046;8.468;2023-05-15T02:19:20;17.97;;;10.97;;
142;SDS011;63667;49.046;8.468;2023-05-15T02:21:46;17.67;;;11.10;;
142;SDS011;63667;49.046;8.468;2023-05-15T02:24:13;19.50;;;11.33;;
142;SDS011;63667;49.046;8.468;2023-05-15T02:26:42;21.77;;;11.60;;
142;SDS011;63667;49.046;8.468;2023-05-15T02:31:43;19.80;;;11.80;;
142;SDS011;63667;49.046;8.468;2023-05-15T02:34:17;18.23;;;11.60;;
142;SDS011;63667;49.046;8.468;2023-05-15T02:36:46;20.03;;;11.23;;
142;SDS011;63667;49.046;8.468;2023-05-15T02:39:13;16.83;;;11.10;;
142;SDS011;63667;49.046;8.468;2023-05-15T02:41:41;16.17;;;10.40;;
142;SDS011;63667;49.046;8.468;2023-05-15T02:44:08;16.20;;;9.60;;
142;SDS011;63667;49.046;8.468;2023-05-15T02:46:35;15.90;;;9.50;;
142;SDS011;63667;49.046;8.468;2023-05-15T02:49:02;13.33;;;8.83;;
142;SDS011;63667;49.046;8.468;2023-05-15T02:51:29;18.00;;;8.90;;
142;SDS011;63667;49.046;8.468;2023-05-15T02:53:55;18.70;;;9.97;;
142;SDS011;63667;49.046;8.468;2023-05-15T02:56:25;17.17;;;10.63;;
142;SDS011;63667;49.046;8.468;2023-05-15T02:58:52;17.60;;;10.07;;
142;SDS011;63667;49.046;8.468;2023-05-15T03:01:18;16.03;;;9.87;;
142;SDS011;63667;49.046;8.468;2023-05-15T03:03:46;18.43;;;9.90;;
142;SDS011;63667;49.046;8.468;2023-05-15T03:06:12;19.93;;;11.13;;
142;SDS011;63667;49.046;8.468;2023-05-15T03:08:38;21.90;;;10.73;;
142;SDS011;63667;49.046;8.468;2023-05-15T03:11:05;16.37;;;10.97;;
142;SDS011;63667;49.046;8.468;2023-05-15T03:13:31;20.23;;;11.07;;
142;SDS011;63667;49.046;8.468;2023-05-15T03:15:57;20.70;;;10.93;;
142;SDS011;63667;49.046;8.468;2023-05-15T03:18:24;16.73;;;10.23;;
142;SDS011;63667;49.046;8.468;2023-05-15T03:20:50;19.70;;;11.10;;
142;SDS011;63667;49.046;8.468;2023-05-15T03:23:17;18.13;;;11.00;;
142;SDS011;63667;49.046;8.468;2023-05-15T03:25:43;16.23;;;9.10;;
142;SDS011;63667;49.046;8.468;2023-05-15T03:28:10;17.33;;;10.67;;
142;SDS011;63667;49.046;8.468;2023-05-15T03:30:36;20.80;;;11.63;;
142;SDS011;63667;49.046;8.468;2023-05-15T03:33:02;20.20;;;12.00;;
142;SDS011;63667;49.046;8.468;2023-05-15T03:35:29;22.30;;;11.37;;
142;SDS011;63667;49.046;8.468;2023-05-15T03:37:56;18.20;;;9.87;;
142;SDS011;63667;49.046;8.468;2023-05-15T03:40:23;19.63;;;10.17;;
142;SDS011;63667;49.046;8.468;2023-05-15T03:42:49;18.93;;;11.03;;
142;SDS011;63667;49.046;8.468;2023-05-15T03:45:18;18.30;;;10.97;;
142;SDS011;63667;49.046;8.468;2023-05-15T03:47:45;19.67;;;11.07;;
142;SDS011;63667;49.046;8.468;2023-05-15T03:50:12;17.07;;;10.93;;
142;SDS011;63667;49.046;8.468;2023-05-15T03:52:39;17.80;;;11.30;;
142;SDS011;63667;49.046;8.468;2023-05-15T03:55:05;21.53;;;11.00;;
142;SDS011;63667;49.046;8.468;2023-05-15T03:57:32;18.27;;;11.20;;
142;SDS011;63667;49.046;8.468;2023-05-15T03:59:59;18.13;;;10.67;;
142;SDS011;63667;49.046;8.468;2023-05-15T04:02:34;23.40;;;11.50;;
142;SDS011;63667;49.046;8.468;2023-05-15T04:05:01;18.57;;;10.87;;
142;SDS011;63667;49.046;8.468;2023-05-15T04:07:27;16.37;;;10.90;;
142;SDS011;63667;49.046;8.468;2023-05-15T04:09:53;18.57;;;10.97;;
142;SDS011;63667;49.046;8.468;2023-05-15T04:12:20;17.47;;;11.10;;
142;SDS011;63667;49.046;8.468;2023-05-15T04:14:47;16.57;;;9.90;;
142;SDS011;63667;49.046;8.468;2023-05-15T04:17:13;17.00;;;10.20;;
142;SDS011;63667;49.046;8.468;2023-05-15T04:19:39;17.23;;;10.30;;
142;SDS011;63667;49.046;8.468;2023-05-15T04:22:06;18.43;;;10.60;;
142;SDS011;63667;49.046;8.468;2023-05-15T04:24:32;16.90;;;10.13;;
142;SDS011;63667;49.046;8.468;2023-05-15T04:26:58;18.93;;;10.00;;
142;SDS011;63667;49.046;8.468;2023-05-15T04:29:25;14.43;;;9.80;;
142;SDS011;63667;49.046;8.468;2023-05-15T04:31:51;17.90;;;9.50;;
142;SDS011;63667;49.046;8.468;2023-05-15T04:34:18;17.97;;;9.20;;
142;SDS011;63667;49.046;8.468;2023-05-15T04:36:44;17.17;;;9.60;;
142;SDS011;63667;49.046;8.468;2023-05-15T04:39:10;17.97;;;10.17;;
142;SDS011;63667;49.046;8.468;2023-05-15T04:41:37;23.47;;;11.13;;
142;SDS011;63667;49.046;8.468;2023-05-15T04:44:03;17.53;;;10.30;;
142;SDS011;63667;49.046;8.468;2023-05-15T04:46:30;17.73;;;10.20;;
142;SDS011;63667;49.046;8.468;2023-05-15T04:48:59;16.77;;;10.87;;
142;SDS011;63667;49.046;8.468;2023-05-15T04:51:25;17.73;;;10.17;;
142;SDS011;63667;49.046;8.468;2023-05-15T04:53:51;19.40;;;10.37;;
142;SDS011;63667;49.046;8.468;2023-05-15T04:56:18;21.00;;;10.27;;
142;SDS011;63667;49.046;8.468;2023-05-15T04:58:45;14.00;;;9.73;;
142;SDS011;63667;49.046;8.468;2023-05-15T05:01:12;16.57;;;10.47;;
142;SDS011;63667;49.046;8.468;2023-05-15T05:03:38;19.10;;;10.90;;
142;SDS011;63667;49.046;8.468;2023-05-15T05:06:04;20.97;;;11.10;;
142;SDS011;63667;49.046;8.468;2023-05-15T05:08:31;15.47;;;10.00;;
142;SDS011;63667;49.046;8.468;2023-05-15T05:10:57;17.17;;;10.63;;
142;SDS011;63667;49.046;8.468;2023-05-15T05:13:24;16.33;;;9.83;;
142;SDS011;63667;49.046;8.468;2023-05-15T05:15:50;15.40;;;10.33;;
142;SDS011;63667;49.046;8.468;2023-05-15T05:18:16;18.63;;;10.33;;
142;SDS011;63667;49.046;8.468;2023-05-15T05:20:43;19.70;;;10.20;;
142;SDS011;63667;49.046;8.468;2023-05-15T05:23:09;13.03;;;8.90;;
142;SDS011;63667;49.046;8.468;2023-05-15T05:25:36;14.70;;;9.07;;
142;SDS011;63667;49.046;8.468;2023-05-15T05:28:02;16.97;;;10.20;;
142;SDS011;63667;49.046;8.468;2023-05-15T05:30:28;15.27;;;9.10;;
142;SDS011;63667;49.046;8.468;2023-05-15T05:32:55;14.40;;;9.17;;
142;SDS011;63667;49.046;8.468;2023-05-15T05:35:21;13.57;;;8.67;;
142;SDS011;63667;49.046;8.468;2023-05-15T05:37:47;12.67;;;8.03;;
142;SDS011;63667;49.046;8.468;2023-05-15T05:40:14;13.30;;;8.67;;
142;SDS011;63667;49.046;8.468;2023-05-15T05:42:42;11.27;;;8.13;;
142;SDS011;63667;49.046;8.468;2023-05-15T05:45:08;20.20;;;8.70;;
142;SDS011;63667;49.046;8.468;2023-05-15T05:47:35;12.90;;;8.47;;
142;SDS011;63667;49.046;8.468;2023-05-15T05:50:01;11.50;;;8.07;;
142;SDS011;63667;49.046;8.468;2023-05-15T05:52:27;16.80;;;8.53;;
142;SDS011;63667;49.046;8.468;2023-05-15T05:54:54;11.57;;;8.00;;
142;SDS011;63667;49.046;8.468;2023-05-15T05:57:20;11.90;;;7.40;;
142;SDS011;63667;49.046;8.468;2023-05-15T05:59:47;14.90;;;8.30;;
142;SDS011;63667;49.046;8.468;2023-05-15T06:02:14;14.50;;;7.80;;
142;SDS011;63667;49.046;8.468;2023-05-15T06:04:40;13.73;;;7.80;;
142;SDS011;63667;49.046;8.468;2023-05-15T06:07:07;11.80;;;7.70;;
142;SDS011;63667;49.046;8.468;2023-05-15T06:09:33;13.00;;;7.70;;
142;SDS011;63667;49.046;8.468;2023-05-15T06:12:00;8.43;;;7.00;;
142;SDS011;63667;49.046;8.468;2023-05-15T06:14:29;8.93;;;7.20;;
142;SDS011;63667;49.046;8.468;2023-05-15T06:16:55;23.50;;;7.87;;
142;SDS011;63667;49.046;8.468;2023-05-15T06:19:22;13.77;;;6.90;;
142;SDS011;63667;49.046;8.468;2023-05-15T06:21:48;14.43;;;7.13;;
142;SDS011;63667;49.046;8.468;2023-05-15T06:24:15;16.57;;;7.27;;
142;SDS011;63667;49.046;8.468;2023-05-15T06:26:41;15.27;;;7.80;;
142;SDS011;63667;49.046;8.468;2023-05-15T06:29:08;9.30;;;6.97;;
142;SDS011;63667;49.046;8.468;2023-05-15T06:31:34;10.77;;;7.87;;
142;SDS011;63667;49.046;8.468;2023-05-15T06:34:01;11.10;;;7.40;;
142;SDS011;63667;49.046;8.468;2023-05-15T06:36:27;10.20;;;6.90;;
142;SDS011;63667;49.046;8.468;2023-05-15T06:38:54;13.50;;;7.30;;
142;SDS011;63667;49.046;8.468;2023-05-15T06:41:20;11.17;;;7.13;;
142;SDS011;63667;49.046;8.468;2023-05-15T06:43:47;10.23;;;7.50;;
142;SDS011;63667;49.046;8.468;2023-05-15T06:46:13;12.20;;;7.07;;
142;SDS011;63667;49.046;8.468;2023-05-15T06:48:41;9.43;;;7.00;;
142;SDS011;63667;49.046;8.468;2023-05-15T06:51:07;10.00;;;7.40;;
142;SDS011;63667;49.046;8.468;2023-05-15T06:53:34;10.00;;;6.83;;
142;SDS011;63667;49.046;8.468;2023-05-15T06:56:00;9.20;;;6.70;;
142;SDS011;63667;49.046;8.468;2023-05-15T06:58:26;9.90;;;7.00;;
142;SDS011;63667;49.046;8.468;2023-05-15T07:00:53;9.47;;;7.00;;
142;SDS011;63667;49.046;8.468;2023-05-15T07:03:19;7.60;;;6.20;;
142;SDS011;63667;49.046;8.468;2023-05-15T07:05:46;9.10;;;6.80;;
142;SDS011;63667;49.046;8.468;2023-05-15T07:08:12;12.03;;;6.50;;
142;SDS011;63667;49.046;8.468;2023-05-15T07:10:38;8.90;;;6.60;;
142;SDS011;63667;49.046;8.468;2023-05-15T07:13:05;12.33;;;6.90;;
142;SDS011;63667;49.046;8.468;2023-05-15T07:15:31;12.73;;;6.40;;
142;SDS011;63667;49.046;8.468;2023-05-15T07:17:58;11.43;;;6.83;;
142;SDS011;63667;49.046;8.468;2023-05-15T07:20:24;9.00;;;7.07;;
142;SDS011;63667;49.046;8.468;2023-05-15T07:22:50;8.07;;;6.50;;
142;SDS011;63667;49.046;8.468;2023-05-15T07:25:17;7.83;;;5.97;;
142;SDS011;63667;49.046;8.468;2023-05-15T07:27:43;11.43;;;6.37;;
142;SDS011;63667;49.046;8.468;2023-05-15T07:30:10;9.73;;;6.30;;
142;SDS011;63667;49.046;8.468;2023-05-15T07:32:36;9.97;;;6.43;;
142;SDS011;63667;49.046;8.468;2023-05-15T07:35:03;9.30;;;6.90;;
142;SDS011;63667;49.046;8.468;2023-05-15T07:37:30;8.97;;;6.17;;
142;SDS011;63667;49.046;8.468;2023-05-15T07:39:56;9.37;;;6.30;;
142;SDS011;63667;49.046;8.468;2023-05-15T07:42:23;8.00;;;6.03;;
142;SDS011;63667;49.046;8.468;2023-05-15T07:44:50;8.50;;;6.60;;
142;SDS011;63667;49.046;8.468;2023-05-15T07:47:16;8.03;;;6.50;;
142;SDS011;63667;49.046;8.468;2023-05-15T07:49:43;8.87;;;6.90;;
142;SDS011;63667;49.046;8.468;2023-05-15T07:52:09;11.37;;;6.43;;
142;SDS011;63667;49.046;8.468;2023-05-15T07:54:35;9.37;;;6.50;;
142;SDS011;63667;49.046;8.468;2023-05-15T07:57:04;8.77;;;6.50;;
142;SDS011;63667;49.046;8.468;2023-05-15T07:59:30;7.80;;;6.10;;
142;SDS011;63667;49.046;8.468;2023-05-15T08:01:56;11.17;;;6.80;;
142;SDS011;63667;49.046;8.468;2023-05-15T08:04:23;10.97;;;6.87;;
142;SDS011;63667;49.046;8.468;2023-05-15T08:06:49;13.53;;;6.20;;
142;SDS011;63667;49.046;8.468;2023-05-15T08:09:16;8.10;;;6.03;;
142;SDS011;63667;49.046;8.468;2023-05-15T08:11:43;10.37;;;6.90;;
142;SDS011;63667;49.046;8.468;2023-05-15T08:14:10;7.77;;;5.50;;
142;SDS011;63667;49.046;8.468;2023-05-15T08:16:36;10.73;;;5.60;;
142;SDS011;63667;49.046;8.468;2023-05-15T08:19:02;7.53;;;6.10;;
142;SDS011;63667;49.046;8.468;2023-05-15T08:21:31;5.93;;;5.10;;
142;SDS011;63667;49.046;8.468;2023-05-15T08:23:58;8.70;;;5.10;;
142;SDS011;63667;49.046;8.468;2023-05-15T08:26:24;10.07;;;6.03;;
142;SDS011;63667;49.046;8.468;2023-05-15T08:28:51;7.67;;;5.80;;
142;SDS011;63667;49.046;8.468;2023-05-15T08:31:17;9.30;;;6.40;;
142;SDS011;63667;49.046;8.468;2023-05-15T08:33:44;6.33;;;5.40;;
142;SDS011;63667;49.046;8.468;2023-05-15T08:36:10;6.40;;;5.80;;
142;SDS011;63667;49.046;8.468;2023-05-15T08:38:36;8.37;;;5.87;;
142;SDS011;63667;49.046;8.468;2023-05-15T08:41:05;7.63;;;5.90;;
142;SDS011;63667;49.046;8.468;2023-05-15T08:43:33;10.57;;;6.13;;
142;SDS011;63667;49.046;8.468;2023-05-15T08:46:01;8.13;;;5.87;;
142;SDS011;63667;49.046;8.468;2023-05-15T08:48:28;9.07;;;6.60;;
142;SDS011;63667;49.046;8.468;2023-05-15T08:50:56;7.80;;;5.90;;
142;SDS011;63667;49.046;8.468;2023-05-15T08:53:22;6.47;;;5.10;;
142;SDS011;63667;49.046;8.468;2023-05-15T08:55:49;5.80;;;5.50;;
142;SDS011;63667;49.046;8.468;2023-05-15T08:58:16;8.87;;;5.50;;
142;SDS011;63667;49.046;8.468;2023-05-15T09:00:44;9.37;;;6.13;;
142;SDS011;63667;49.046;8.468;2023-05-15T09:03:15;11.77;;;5.90;;
142;SDS011;63667;49.046;8.468;2023-05-15T09:05:42;8.00;;;5.60;;
142;SDS011;63667;49.046;8.468;2023-05-15T09:08:09;8.03;;;5.57;;
142;SDS011;63667;49.046;8.468;2023-05-15T09:10:35;6.33;;;5.60;;
142;SDS011;63667;49.046;8.468;2023-05-15T09:13:02;6.40;;;5.20;;
142;SDS011;63667;49.046;8.468;2023-05-15T09:15:29;11.37;;;5.77;;
142;SDS011;63667;49.046;8.468;2023-05-15T09:17:55;6.03;;;4.90;;
142;SDS011;63667;49.046;8.468;2023-05-15T09:20:29;5.90;;;5.20;;
142;SDS011;63667;49.046;8.468;2023-05-15T09:22:57;6.90;;;5.40;;
142;SDS011;63667;49.046;8.468;2023-05-15T09:25:40;6.20;;;5.07;;
142;SDS011;63667;49.046;8.468;2023-05-15T09:28:08;5.13;;;4.83;;
142;SDS011;63667;49.046;8.468;2023-05-15T09:30:38;5.30;;;4.73;;
142;SDS011;63667;49.046;8.468;2023-05-15T09:33:06;7.60;;;5.37;;
142;SDS011;63667;49.046;8.468;2023-05-15T09:35:34;6.63;;;5.30;;
142;SDS011;63667;49.046;8.468;2023-05-15T09:38:02;8.03;;;5.70;;
142;SDS011;63667;49.046;8.468;2023-05-15T09:40:30;8.00;;;5.30;;
142;SDS011;63667;49.046;8.468;2023-05-15T09:42:56;5.93;;;5.10;;
142;SDS011;63667;49.046;8.468;2023-05-15T09:45:23;5.57;;;5.00;;
142;SDS011;63667;49.046;8.468;2023-05-15T09:47:51;5.40;;;4.87;;
142;SDS011;63667;49.046;8.468;2023-05-15T09:50:22;5.50;;;4.80;;
142;SDS011;63667;49.046;8.468;2023-05-15T09:52:49;6.10;;;5.30;;
142;SDS011;63667;49.046;8.468;2023-05-15T09:55:16;6.90;;;5.27;;
142;SDS011;63667;49.046;8.468;2023-05-15T09:57:44;5.90;;;5.20;;
142;SDS011;63667;49.046;8.468;2023-05-15T10:00:11;5.60;;;5.13;;
142;SDS011;63667;49.046;8.468;2023-05-15T10:08:52;6.33;;;5.50;;
142;SDS011;63667;49.046;8.468;2023-05-15T10:11:19;5.60;;;5.20;;
142;SDS011;63667;49.046;8.468;2023-05-15T10:13:48;5.80;;;5.23;;
142;SDS011;63667;49.046;8.468;2023-05-15T10:16:15;14.33;;;5.33;;
142;SDS011;63667;49.046;8.468;2023-05-15T10:18:44;6.20;;;5.00;;
142;SDS011;63667;49.046;8.468;2023-05-15T10:21:12;8.70;;;5.60;;
142;SDS011;63667;49.046;8.468;2023-05-15T10:23:42;7.57;;;4.97;;
142;SDS011;63667;49.046;8.468;2023-05-15T10:26:19;10.90;;;5.97;;
142;SDS011;63667;49.046;8.468;2023-05-15T10:28:49;5.87;;;5.23;;
142;SDS011;63667;49.046;8.468;2023-05-15T10:31:17;5.47;;;4.90;;
142;SDS011;63667;49.046;8.468;2023-05-15T10:33:44;6.30;;;5.50;;
142;SDS011;63667;49.046;8.468;2023-05-15T10:36:11;6.50;;;5.60;;
142;SDS011;63667;49.046;8.468;2023-05-15T10:38:39;5.60;;;5.23;;
142;SDS011;63667;49.046;8.468;2023-05-15T10:41:05;7.63;;;5.00;;
142;SDS011;63667;49.046;8.468;2023-05-15T10:43:32;5.33;;;5.07;;
142;SDS011;63667;49.046;8.468;2023-05-15T10:46:00;7.27;;;4.87;;
142;SDS011;63667;49.046;8.468;2023-05-15T10:48:27;5.70;;;5.30;;
142;SDS011;63667;49.046;8.468;2023-05-15T10:50:58;5.40;;;5.10;;
142;SDS011;63667;49.046;8.468;2023-05-15T10:53:26;4.97;;;4.67;;
142;SDS011;63667;49.046;8.468;2023-05-15T10:55:55;7.73;;;4.50;;
142;SDS011;63667;49.046;8.468;2023-05-15T10:58:22;4.43;;;4.13;;
142;SDS011;63667;49.046;8.468;2023-05-15T11:00:48;4.77;;;4.47;;
142;SDS011;63667;49.046;8.468;2023-05-15T11:03:16;6.93;;;5.43;;
142;SDS011;63667;49.046;8.468;2023-05-15T11:06:09;4.90;;;4.60;;
142;SDS011;63667;49.046;8.468;2023-05-15T11:08:40;6.70;;;4.67;;
142;SDS011;63667;49.046;8.468;2023-05-15T11:19:23;5.90;;;5.07;;
142;SDS011;63667;49.046;8.468;2023-05-15T11:21:56;5.83;;;4.60;;
142;SDS011;63667;49.046;8.468;2023-05-15T11:24:29;6.17;;;5.00;;
142;SDS011;63667;49.046;8.468;2023-05-15T11:27:00;6.63;;;4.97;;
142;SDS011;63667;49.046;8.468;2023-05-15T11:29:26;6.10;;;4.20;;
142;SDS011;63667;49.046;8.468;2023-05-15T11:31:53;4.33;;;4.07;;
142;SDS011;63667;49.046;8.468;2023-05-15T11:34:32;4.97;;;4.10;;
142;SDS011;63667;49.046;8.468;2023-05-15T11:36:59;4.40;;;4.10;;
142;SDS011;63667;49.046;8.468;2023-05-15T11:39:27;5.17;;;4.23;;
142;SDS011;63667;49.046;8.468;2023-05-15T11:41:54;3.60;;;3.40;;
142;SDS011;63667;49.046;8.468;2023-05-15T11:44:21;5.60;;;4.17;;
142;SDS011;63667;49.046;8.468;2023-05-15T11:46:51;12.83;;;4.20;;
142;SDS011;63667;49.046;8.468;2023-05-15T11:49:18;5.43;;;4.40;;
142;SDS011;63667;49.046;8.468;2023-05-15T11:51:46;6.20;;;4.30;;
142;SDS011;63667;49.046;8.468;2023-05-15T11:54:13;6.47;;;5.20;;
142;SDS011;63667;49.046;8.468;2023-05-15T11:56:43;8.40;;;5.33;;
142;SDS011;63667;49.046;8.468;2023-05-15T11:59:13;8.60;;;5.60;;
142;SDS011;63667;49.046;8.468;2023-05-15T12:01:43;10.37;;;6.30;;
142;SDS011;63667;49.046;8.468;2023-05-15T12:04:13;9.33;;;6.43;;
142;SDS011;63667;49.046;8.468;2023-05-15T12:06:40;9.07;;;6.33;;
142;SDS011;63667;49.046;8.468;2023-05-15T12:09:23;6.83;;;6.03;;
142;SDS011;63667;49.046;8.468;2023-05-15T12:11:52;8.00;;;5.43;;
142;SDS011;63667;49.046;8.468;2023-05-15T12:14:29;6.77;;;5.20;;
142;SDS011;63667;49.046;8.468;2023-05-15T12:16:59;8.80;;;5.17;;
142;SDS011;63667;49.046;8.468;2023-05-15T12:19:29;10.40;;;4.80;;
142;SDS011;63667;49.046;8.468;2023-05-15T12:21:56;8.60;;;5.20;;
142;SDS011;63667;49.046;8.468;2023-05-15T12:24:24;6.60;;;4.90;;
142;SDS011;63667;49.046;8.468;2023-05-15T12:26:51;5.37;;;4.73;;
142;SDS011;63667;49.046;8.468;2023-05-15T12:29:19;8.27;;;5.13;;
142;SDS011;63667;49.046;8.468;2023-05-15T12:31:46;8.43;;;5.00;;
142;SDS011;63667;49.046;8.468;2023-05-15T12:34:18;7.40;;;4.60;;
142;SDS011;63667;49.046;8.468;2023-05-15T12:36:46;5.53;;;4.63;;
142;SDS011;63667;49.046;8.468;2023-05-15T12:39:13;6.27;;;4.80;;
142;SDS011;63667;49.046;8.468;2023-05-15T12:41:42;6.17;;;4.40;;
142;SDS011;63667;49.046;8.468;2023-05-15T12:44:16;4.80;;;4.10;;
142;SDS011;63667;49.046;8.468;2023-05-15T12:46:43;10.23;;;4.50;;
142;SDS011;63667;49.046;8.468;2023-05-15T12:49:11;6.53;;;4.70;;
142;SDS011;63667;49.046;8.468;2023-05-15T12:51:41;5.83;;;4.40;;
142;SDS011;63667;49.046;8.468;2023-05-15T12:54:18;4.93;;;3.83;;
142;SDS011;63667;49.046;8.468;2023-05-15T12:56:46;5.93;;;4.63;;
142;SDS011;63667;49.046;8.468;2023-05-15T12:59:13;4.53;;;4.23;;
142;SDS011;63667;49.046;8.468;2023-05-15T13:01:40;3.83;;;3.73;;
142;SDS011;63667;49.046;8.468;2023-05-15T13:04:08;4.43;;;4.07;;
142;SDS011;63667;49.046;8.468;2023-05-15T13:06:38;4.77;;;4.47;;
142;SDS011;63667;49.046;8.468;2023-05-15T13:09:06;4.50;;;4.20;;
142;SDS011;63667;49.046;8.468;2023-05-15T13:11:34;6.63;;;4.50;;
142;SDS011;63667;49.046;8.468;2023-05-15T13:14:06;4.83;;;4.53;;
142;SDS011;63667;49.046;8.468;2023-05-15T13:16:36;6.33;;;4.27;;
142;SDS011;63667;49.046;8.468;2023-05-15T13:19:03;4.57;;;4.30;;
142;SDS011;63667;49.046;8.468;2023-05-15T13:21:31;5.47;;;4.53;;
142;SDS011;63667;49.046;8.468;2023-05-15T13:23:58;4.77;;;4.30;;
142;SDS011;63667;49.046;8.468;2023-05-15T13:26:26;4.93;;;4.67;;
142;SDS011;63667;49.046;8.468;2023-05-15T13:28:53;4.80;;;4.50;;
142;SDS011;63667;49.046;8.468;2023-05-15T13:31:20;5.40;;;4.50;;
142;SDS011;63667;49.046;8.468;2023-05-15T13:33:48;5.30;;;4.10;;
142;SDS011;63667;49.046;8.468;2023-05-15T13:36:16;4.90;;;4.60;;
142;SDS011;63667;49.046;8.468;2023-05-15T13:38:45;9.93;;;6.00;;
142;SDS011;63667;49.046;8.468;2023-05-15T13:41:12;5.53;;;5.23;;
142;SDS011;63667;49.046;8.468;2023-05-15T13:43:40;5.53;;;5.23;;
142;SDS011;63667;49.046;8.468;2023-05-15T13:46:07;8.90;;;6.30;;
142;SDS011;63667;49.046;8.468;2023-05-15T13:48:35;9.77;;;6.40;;
142;SDS011;63667;49.046;8.468;2023-05-15T13:51:02;9.20;;;5.60;;
142;SDS011;63667;49.046;8.468;2023-05-15T13:53:30;7.03;;;6.17;;
142;SDS011;63667;49.046;8.468;2023-05-15T13:55:58;5.10;;;4.80;;
142;SDS011;63667;49.046;8.468;2023-05-15T13:58:25;7.10;;;5.00;;
142;SDS011;63667;49.046;8.468;2023-05-15T14:00:52;5.00;;;4.70;;
142;SDS011;63667;49.046;8.468;2023-05-15T14:03:19;6.10;;;5.13;;
142;SDS011;63667;49.046;8.468;2023-05-15T14:05:46;7.43;;;5.40;;
142;SDS011;63667;49.046;8.468;2023-05-15T14:08:13;7.27;;;5.37;;
142;SDS011;63667;49.046;8.468;2023-05-15T14:10:41;10.37;;;5.43;;
142;SDS011;63667;49.046;8.468;2023-05-15T14:13:08;7.00;;;5.17;;
142;SDS011;63667;49.046;8.468;2023-05-15T14:15:35;7.10;;;5.37;;
142;SDS011;63667;49.046;8.468;2023-05-15T14:18:03;6.90;;;5.40;;
142;SDS011;63667;49.046;8.468;2023-05-15T14:20:30;8.70;;;6.33;;
142;SDS011;63667;49.046;8.468;2023-05-15T14:22:58;6.00;;;4.73;;
142;SDS011;63667;49.046;8.468;2023-05-15T14:25:25;5.90;;;5.40;;
142;SDS011;63667;49.046;8.468;2023-05-15T14:27:53;9.53;;;4.63;;
142;SDS011;63667;49.046;8.468;2023-05-15T14:30:21;7.03;;;5.10;;
142;SDS011;63667;49.046;8.468;2023-05-15T14:32:47;5.37;;;4.40;;
142;SDS011;63667;49.046;8.468;2023-05-15T14:35:15;7.10;;;5.07;;
142;SDS011;63667;49.046;8.468;2023-05-15T14:37:42;8.27;;;4.70;;
142;SDS011;63667;49.046;8.468;2023-05-15T14:40:10;5.30;;;4.70;;
142;SDS011;63667;49.046;8.468;2023-05-15T14:42:38;5.70;;;4.80;;
142;SDS011;63667;49.046;8.468;2023-05-15T14:45:05;5.57;;;4.90;;
142;SDS011;63667;49.046;8.468;2023-05-15T14:47:32;6.43;;;5.13;;
142;SDS011;63667;49.046;8.468;2023-05-15T14:50:00;6.33;;;5.20;;
142;SDS011;63667;49.046;8.468;2023-05-15T14:52:27;6.07;;;5.40;;
142;SDS011;63667;49.046;8.468;2023-05-15T14:54:54;8.40;;;5.93;;
142;SDS011;63667;49.046;8.468;2023-05-15T14:57:22;6.93;;;4.97;;
142;SDS011;63667;49.046;8.468;2023-05-15T14:59:49;7.40;;;5.83;;
142;SDS011;63667;49.046;8.468;2023-05-15T15:02:16;6.37;;;5.63;;
142;SDS011;63667;49.046;8.468;2023-05-15T15:04:43;7.00;;;5.20;;
142;SDS011;63667;49.046;8.468;2023-05-15T15:07:11;6.77;;;5.10;;
142;SDS011;63667;49.046;8.468;2023-05-15T15:09:39;7.10;;;5.77;;
142;SDS011;63667;49.046;8.468;2023-05-15T15:12:06;7.70;;;5.50;;
142;SDS011;63667;49.046;8.468;2023-05-15T15:14:34;7.83;;;5.60;;
142;SDS011;63667;49.046;8.468;2023-05-15T15:17:01;7.17;;;5.10;;
142;SDS011;63667;49.046;8.468;2023-05-15T15:19:28;6.10;;;5.43;;
142;SDS011;63667;49.046;8.468;2023-05-15T15:21:56;7.00;;;5.27;;
142;SDS011;63667;49.046;8.468;2023-05-15T15:24:23;6.80;;;5.50;;
142;SDS011;63667;49.046;8.468;2023-05-15T15:26:51;5.90;;;5.07;;
142;SDS011;63667;49.046;8.468;2023-05-15T15:29:18;5.77;;;4.97;;
142;SDS011;63667;49.046;8.468;2023-05-15T15:31:51;8.00;;;5.37;;
142;SDS011;63667;49.046;8.468;2023-05-15T15:34:20;5.60;;;4.57;;